Time;durP1;ratioP1;P1;durP2;ratioP2;P2;SDS_P1;SDS_P2;PMS_P1;PMS_P2;Temp;Humidity;BMP_temperature;BMP_pressure;BME280_temperature;BME280_humidity;BME280_pressure;Samples;Min_cycle;Max_cycle;Signal;HPM_P1;HPM_P2
2021/12/13 00:01:50;;;;;;;;;;;;;;;;;;5132816;27;867;-61
2021/12/13 00:04:33;;;;;;;;;;;;;;;;;;5114923;28;847;-61
2021/12/13 00:07:04;;;;;;;;;;;;;;;;;;5132587;28;824;-61
2021/12/13 00:09:31;;;;;;;;;;;;;;;;;;5132235;28;879;-62
2021/12/13 00:11:59;;;;;;;;;;;;;;;;;;5132380;28;797;-61
2021/12/13 00:14:29;;;;;;;;;;;;;;;;;;5131550;28;926;-61
2021/12/13 00:17:03;;;;;;;;;;;;;;;;;;5131688;28;1901;-61
2021/12/13 00:19:50;;;;;;;;;;;;;;;;;;5131732;28;793;-61
2021/12/13 00:22:26;;;;;;;;;;;;;;;;;;5132359;28;875;-61
2021/12/13 00:24:53;;;;;;;;;;;;;;;;;;5131900;28;947;-61
2021/12/13 00:27:20;;;;;;;;;;;;;;;;;;5132203;28;891;-61
2021/12/13 00:29:59;;;;;;;;;;;;;;;;;;5132040;28;848;-61
2021/12/13 00:32:34;;;;;;;;;;;;;;;;;;5131725;28;816;-61
2021/12/13 00:35:00;;;;;;;;;;;;;;;;;;5132202;28;970;-61
2021/12/13 00:37:35;;;;;;;;;;;;;;;;;;5109569;28;1976;-61
2021/12/13 00:40:04;;;;;;;;;;;;;;;;;;5109993;28;1345;-61
2021/12/13 00:42:33;;;;;;;;;;;;;;;;;;5111546;28;998;-61
2021/12/13 00:45:03;;;;;;;;;;;;;;;;;;5111425;28;884;-61
2021/12/13 00:47:30;;;;;;;;;;;;;;;;;;5111630;28;828;-62
2021/12/13 00:50:02;;;;;;;;;;;;;;;;;;5111362;28;856;-61
2021/12/13 00:52:30;;;;;;;;;;;;;;;;;;5110976;28;2174;-61
2021/12/13 00:54:56;;;;;;;;;;;;;;;;;;5111267;28;911;-61
2021/12/13 00:57:30;;;;;;;;;;;;;;;;;;5111541;28;1913;-61
2021/12/13 01:00:04;;;;;;;;;;;;;;;;;;5111275;28;911;-61
2021/12/13 01:02:58;;;;;;;;;;;;;;;;;;5111333;28;831;-61
2021/12/13 01:05:39;;;;;;;;;;;;;;;;;;5108114;28;1200;-61
2021/12/13 01:08:04;;;;;;;;;;;;;;;;;;5113061;28;940;-62
2021/12/13 01:10:56;;;;;;;;;;;;;;;;;;5114701;28;836;-62
2021/12/13 01:13:40;;;;;;;;;;;;;;;;;;5113350;28;1585;-61
2021/12/13 01:16:34;;;;;;;;;;;;;;;;;;5114506;28;963;-61
2021/12/13 01:21:57;;;;;;;;;;;;;;;;;;5113935;28;1362;-61
2021/12/13 01:25:14;;;;;;;;;;;;;;;;;;5114575;28;837;-61
2021/12/13 01:27:36;;;;;;;;;;;;;;;;;;5114295;28;1567;-62
2021/12/13 01:30:03;;;;;;;;;;;;;;;;;;5114286;28;907;-62
2021/12/13 01:32:39;;;;;;;;;;;;;;;;;;5114726;28;935;-62
2021/12/13 01:35:06;;;;;;;;;;;;;;;;;;5113556;28;915;-62
2021/12/13 01:37:31;;;;;;;;;;;;;;;;;;5124166;27;1929;-62
2021/12/13 01:40:03;;;;;;;;;;;;;;;;;;5134198;27;880;-62
2021/12/13 01:42:29;;;;;;;;;;;;;;;;;;5134329;27;907;-62
2021/12/13 01:44:56;;;;;;;;;;;;;;;;;;5134392;27;848;-62
2021/12/13 01:47:29;;;;;;;;;;;;;;;;;;5134179;27;1152;-62
2021/12/13 01:50:02;;;;;;;;;;;;;;;;;;5134251;27;911;-61
2021/12/13 01:52:29;;;;;;;;;;;;;;;;;;5133075;27;1174;-62
2021/12/13 01:54:55;;;;;;;;;;;;;;;;;;5137727;27;1221;-62
2021/12/13 01:57:38;;;;;;;;;;;;;;;;;;5137096;27;2076;-62
2021/12/13 02:00:17;;;;;;;;;;;;;;;;;;5133925;27;913;-61
2021/12/13 02:02:43;;;;;;;;;;;;;;;;;;5133379;27;951;-61
2021/12/13 02:05:08;;;;;;;;;;;;;;;;;;5133465;27;859;-61
2021/12/13 02:07:39;;;;;;;;;;;;;;;;;;5133264;27;966;-61
2021/12/13 02:10:08;;;;;;;;;;;;;;;;;;5133424;27;832;-60
2021/12/13 02:12:36;;;;;;;;;;;;;;;;;;5133521;27;926;-60
2021/12/13 02:17:49;;;;;;;;;;;;;;;;;;5134364;27;1893;-61
2021/12/13 02:20:21;;;;;;;;;;;;;;;;;;5133380;27;829;-61
2021/12/13 02:22:51;;;;;;;;;;;;;;;;;;5134259;27;871;-60
2021/12/13 02:25:24;;;;;;;;;;;;;;;;;;5134572;27;816;-61
2021/12/13 02:28:02;;;;;;;;;;;;;;;;;;5134069;27;884;-61
2021/12/13 02:30:30;;;;;;;;;;;;;;;;;;5133680;27;1053;-61
2021/12/13 02:32:56;;;;;;;;;;;;;;;;;;5134679;27;848;-61
2021/12/13 02:35:23;;;;;;;;;;;;;;;;;;5133493;27;916;-61
2021/12/13 02:37:49;;;;;;;;;;;;;;;;;;5133609;27;1898;-61
2021/12/13 02:40:15;;;;;;;;;;;;;;;;;;5133842;27;895;-61
2021/12/13 02:42:41;;;;;;;;;;;;;;;;;;5133536;27;967;-62
2021/12/13 02:45:14;;;;;;;;;;;;;;;;;;5133293;27;765;-62
2021/12/13 02:47:46;;;;;;;;;;;;;;;;;;5133705;27;804;-62
2021/12/13 02:50:16;;;;;;;;;;;;;;;;;;5132995;27;874;-62
2021/12/13 02:52:41;;;;;;;;;;;;;;;;;;5133075;27;1049;-62
2021/12/13 02:55:12;;;;;;;;;;;;;;;;;;5114624;27;938;-62
2021/12/13 02:57:39;;;;;;;;;;;;;;;;;;5133160;27;1902;-62
2021/12/13 03:00:11;;;;;;;;;;;;;;;;;;5133276;27;828;-62
2021/12/13 03:02:40;;;;;;;;;;;;;;;;;;5132865;27;1069;-62
2021/12/13 03:05:08;;;;;;;;;;;;;;;;;;5114155;27;1539;-62
2021/12/13 03:07:35;;;;;;;;;;;;;;;;;;5132982;27;1185;-62
2021/12/13 03:10:04;;;;;;;;;;;;;;;;;;5133271;27;891;-61
2021/12/13 03:12:30;;;;;;;;;;;;;;;;;;5132709;27;911;-62
2021/12/13 03:15:04;;;;;;;;;;;;;;;;;;5114418;27;901;-62
2021/12/13 03:17:31;;;;;;;;;;;;;;;;;;5132361;27;1972;-61
2021/12/13 03:20:15;;;;;;;;;;;;;;;;;;5132396;27;1238;-62
2021/12/13 03:22:41;;;;;;;;;;;;;;;;;;5131963;27;895;-62
2021/12/13 03:25:37;;;;;;;;;;;;;;;;;;5132113;27;797;-62
2021/12/13 03:28:22;;;;;;;;;;;;;;;;;;5132355;27;990;-62
2021/12/13 03:31:07;;;;;;;;;;;;;;;;;;5131782;27;899;-62
2021/12/13 03:33:35;;;;;;;;;;;;;;;;;;5132183;27;908;-62
2021/12/13 03:36:04;;;;;;;;;;;;;;;;;;5132282;27;992;-62
2021/12/13 03:38:40;;;;;;;;;;;;;;;;;;5131779;27;1970;-60
2021/12/13 03:41:08;;;;;;;;;;;;;;;;;;5132080;27;843;-63
2021/12/13 03:43:37;;;;;;;;;;;;;;;;;;5132145;27;1018;-60
2021/12/13 03:46:04;;;;;;;;;;;;;;;;;;5132443;27;978;-60
2021/12/13 03:48:30;;;;;;;;;;;;;;;;;;5132099;27;923;-60
2021/12/13 03:50:58;;;;;;;;;;;;;;;;;;5132346;27;991;-60
2021/12/13 03:53:26;;;;;;;;;;;;;;;;;;5132399;27;888;-61
2021/12/13 03:55:56;;;;;;;;;;;;;;;;;;5131917;27;872;-60
2021/12/13 03:58:23;;;;;;;;;;;;;;;;;;5131814;27;1893;-60
2021/12/13 04:00:57;;;;;;;;;;;;;;;;;;5132368;27;911;-60
2021/12/13 04:03:23;;;;;;;;;;;;;;;;;;5132675;27;927;-60
2021/12/13 04:05:49;;;;;;;;;;;;;;;;;;5132282;27;966;-60
2021/12/13 04:08:17;;;;;;;;;;;;;;;;;;5132871;27;879;-60
2021/12/13 04:10:53;;;;;;;;;;;;;;;;;;5113737;28;820;-61
2021/12/13 04:13:23;;;;;;;;;;;;;;;;;;5132116;28;899;-60
2021/12/13 04:18:29;;;;;;;;;;;;;;;;;;5132352;28;1961;-60
2021/12/13 04:20:57;;;;;;;;;;;;;;;;;;5132071;28;825;-60
2021/12/13 04:23:23;;;;;;;;;;;;;;;;;;5131883;28;757;-60
2021/12/13 04:25:50;;;;;;;;;;;;;;;;;;5132631;28;923;-60
2021/12/13 04:28:21;;;;;;;;;;;;;;;;;;5132427;28;873;-61
2021/12/13 04:31:06;;;;;;;;;;;;;;;;;;5113605;28;774;-61
2021/12/13 04:33:31;;;;;;;;;;;;;;;;;;5131615;28;1061;-61
2021/12/13 04:36:00;;;;;;;;;;;;;;;;;;5132355;28;1042;-61
2021/12/13 04:38:30;;;;;;;;;;;;;;;;;;5131931;28;1998;-62
2021/12/13 04:40:55;;;;;;;;;;;;;;;;;;5131856;28;753;-61
2021/12/13 04:43:23;;;;;;;;;;;;;;;;;;5134203;27;789;-61
2021/12/13 04:45:54;;;;;;;;;;;;;;;;;;5135244;27;883;-62
2021/12/13 04:48:21;;;;;;;;;;;;;;;;;;5135481;27;832;-62
2021/12/13 04:50:47;;;;;;;;;;;;;;;;;;5135811;27;860;-62
2021/12/13 04:53:23;;;;;;;;;;;;;;;;;;5135247;27;984;-62
2021/12/13 04:55:49;;;;;;;;;;;;;;;;;;5135542;27;824;-62
2021/12/13 04:58:15;;;;;;;;;;;;;;;;;;5135211;27;1968;-61
2021/12/13 05:00:42;;;;;;;;;;;;;;;;;;5135372;27;994;-61
2021/12/13 05:03:08;;;;;;;;;;;;;;;;;;5135575;27;947;-61
2021/12/13 05:05:34;;;;;;;;;;;;;;;;;;5116448;27;844;-61
2021/12/13 05:08:00;;;;;;;;;;;;;;;;;;5135424;27;923;-61
2021/12/13 05:10:26;;;;;;;;;;;;;;;;;;5134814;27;863;-61
2021/12/13 05:13:02;;;;;;;;;;;;;;;;;;5135531;27;985;-61
2021/12/13 05:15:28;;;;;;;;;;;;;;;;;;5135177;27;821;-61
2021/12/13 05:17:54;;;;;;;;;;;;;;;;;;5135319;27;1972;-61
2021/12/13 05:20:24;;;;;;;;;;;;;;;;;;5135278;27;895;-61
2021/12/13 05:22:54;;;;;;;;;;;;;;;;;;5135051;27;847;-62
2021/12/13 05:25:39;;;;;;;;;;;;;;;;;;5134787;27;884;-61
2021/12/13 05:28:10;;;;;;;;;;;;;;;;;;5135426;27;765;-61
2021/12/13 05:30:41;;;;;;;;;;;;;;;;;;5134462;27;840;-61
2021/12/13 05:33:08;;;;;;;;;;;;;;;;;;5135278;27;912;-61
2021/12/13 05:35:35;;;;;;;;;;;;;;;;;;5134426;27;987;-61
2021/12/13 05:38:03;;;;;;;;;;;;;;;;;;5134498;27;1973;-62
2021/12/13 05:40:29;;;;;;;;;;;;;;;;;;5134445;27;832;-62
2021/12/13 05:42:56;;;;;;;;;;;;;;;;;;5134290;27;982;-60
2021/12/13 05:45:34;;;;;;;;;;;;;;;;;;5133942;27;1859;-62
2021/12/13 05:48:13;;;;;;;;;;;;;;;;;;5138370;27;1182;-62
2021/12/13 05:50:45;;;;;;;;;;;;;;;;;;5152560;27;1213;-62
2021/12/13 05:53:31;;;;;;;;;;;;;;;;;;5154682;27;1316;-62
2021/12/13 05:55:56;;;;;;;;;;;;;;;;;;5153759;27;1501;-62
2021/12/13 05:58:32;;;;;;;;;;;;;;;;;;5155750;27;1945;-62
2021/12/13 06:00:58;;;;;;;;;;;;;;;;;;5136483;27;864;-62
2021/12/13 06:03:33;;;;;;;;;;;;;;;;;;5154746;27;820;-62
2021/12/13 06:06:04;;;;;;;;;;;;;;;;;;5155231;27;812;-62
2021/12/13 06:08:32;;;;;;;;;;;;;;;;;;5154578;27;978;-62
2021/12/13 06:11:02;;;;;;;;;;;;;;;;;;5155182;27;1228;-62
2021/12/13 06:13:43;;;;;;;;;;;;;;;;;;5136056;27;899;-62
2021/12/13 06:16:09;;;;;;;;;;;;;;;;;;5154757;27;931;-63
2021/12/13 06:18:58;;;;;;;;;;;;;;;;;;5154005;27;1968;-62
2021/12/13 06:21:47;;;;;;;;;;;;;;;;;;5154719;27;817;-63
2021/12/13 06:24:13;;;;;;;;;;;;;;;;;;5135831;27;926;-62
2021/12/13 06:26:39;;;;;;;;;;;;;;;;;;5153880;27;827;-62
2021/12/13 06:29:06;;;;;;;;;;;;;;;;;;5154924;27;840;-62
2021/12/13 06:31:36;;;;;;;;;;;;;;;;;;5153856;27;831;-62
2021/12/13 06:34:03;;;;;;;;;;;;;;;;;;5154014;27;910;-61
2021/12/13 06:36:29;;;;;;;;;;;;;;;;;;5153553;27;1027;-61
2021/12/13 06:38:55;;;;;;;;;;;;;;;;;;5153969;27;2003;-62
2021/12/13 06:41:27;;;;;;;;;;;;;;;;;;5153670;27;864;-61
2021/12/13 06:43:54;;;;;;;;;;;;;;;;;;5153957;27;886;-62
2021/12/13 06:46:20;;;;;;;;;;;;;;;;;;5153530;27;1010;-62
2021/12/13 06:48:46;;;;;;;;;;;;;;;;;;5153710;27;899;-62
2021/12/13 06:51:13;;;;;;;;;;;;;;;;;;5153930;27;840;-62
2021/12/13 06:53:39;;;;;;;;;;;;;;;;;;5153350;27;1239;-62
2021/12/13 06:56:17;;;;;;;;;;;;;;;;;;5153955;27;907;-62
2021/12/13 06:58:47;;;;;;;;;;;;;;;;;;5153177;27;1902;-62
2021/12/13 07:01:12;;;;;;;;;;;;;;;;;;5153624;27;852;-62
2021/12/13 07:03:37;;;;;;;;;;;;;;;;;;5152944;27;970;-61
2021/12/13 07:06:04;;;;;;;;;;;;;;;;;;5153429;27;907;-61
2021/12/13 07:08:34;;;;;;;;;;;;;;;;;;5152818;27;895;-61
2021/12/13 07:11:01;;;;;;;;;;;;;;;;;;5153089;27;959;-61
2021/12/13 07:13:50;;;;;;;;;;;;;;;;;;5152866;27;816;-62
2021/12/13 07:16:21;;;;;;;;;;;;;;;;;;5139606;27;1398;-61
2021/12/13 07:18:57;;;;;;;;;;;;;;;;;;5153215;27;1910;-61
2021/12/13 07:21:27;;;;;;;;;;;;;;;;;;5153128;27;827;-62
2021/12/13 07:24:05;;;;;;;;;;;;;;;;;;5152715;27;919;-62
2021/12/13 07:26:37;;;;;;;;;;;;;;;;;;5152610;27;884;-62
2021/12/13 07:29:13;;;;;;;;;;;;;;;;;;5152806;27;832;-62
2021/12/13 07:31:41;;;;;;;;;;;;;;;;;;5153639;27;824;-61
2021/12/13 07:34:08;;;;;;;;;;;;;;;;;;5154717;27;943;-62
2021/12/13 07:36:34;;;;;;;;;;;;;;;;;;5153571;27;1182;-62
2021/12/13 07:39:02;;;;;;;;;;;;;;;;;;5153599;27;1905;-61
2021/12/13 07:41:38;;;;;;;;;;;;;;;;;;5153451;27;769;-61
2021/12/13 07:44:03;;;;;;;;;;;;;;;;;;5154041;27;753;-61
2021/12/13 07:46:30;;;;;;;;;;;;;;;;;;5153541;27;839;-61
2021/12/13 07:48:58;;;;;;;;;;;;;;;;;;5135317;27;892;-61
2021/12/13 07:51:35;;;;;;;;;;;;;;;;;;5154535;27;910;-62
2021/12/13 07:54:11;;;;;;;;;;;;;;;;;;5154383;27;1173;-61
2021/12/13 07:56:36;;;;;;;;;;;;;;;;;;5154466;27;887;-61
2021/12/13 07:59:11;;;;;;;;;;;;;;;;;;5154346;27;1893;-60
2021/12/13 08:01:56;;;;;;;;;;;;;;;;;;5153824;27;899;-61
2021/12/13 08:04:40;;;;;;;;;;;;;;;;;;5134606;27;1856;-61
2021/12/13 08:07:08;;;;;;;;;;;;;;;;;;5154549;27;877;-61
2021/12/13 08:09:39;;;;;;;;;;;;;;;;;;5153154;27;824;-62
2021/12/13 08:12:17;;;;;;;;;;;;;;;;;;5152278;27;1057;-62
2021/12/13 08:14:43;;;;;;;;;;;;;;;;;;5151709;27;1165;-61
2021/12/13 08:17:21;;;;;;;;;;;;;;;;;;5153350;27;1894;-61
2021/12/13 08:19:55;;;;;;;;;;;;;;;;;;5156241;27;843;-61
2021/12/13 08:22:20;;;;;;;;;;;;;;;;;;5156153;27;839;-61
2021/12/13 08:24:48;;;;;;;;;;;;;;;;;;5156515;27;833;-61
2021/12/13 08:27:35;;;;;;;;;;;;;;;;;;5156184;27;883;-61
2021/12/13 08:30:19;;;;;;;;;;;;;;;;;;5156281;27;847;-61
2021/12/13 08:32:58;;;;;;;;;;;;;;;;;;5155836;27;856;-61
2021/12/13 08:35:24;;;;;;;;;;;;;;;;;;5155857;27;1116;-61
2021/12/13 08:37:54;;;;;;;;;;;;;;;;;;5155470;27;1917;-61
2021/12/13 08:40:22;;;;;;;;;;;;;;;;;;5156285;27;885;-61
2021/12/13 08:42:48;;;;;;;;;;;;;;;;;;5155903;27;985;-61
2021/12/13 08:45:21;;;;;;;;;;;;;;;;;;5137586;27;931;-61
2021/12/13 08:47:49;;;;;;;;;;;;;;;;;;5155897;27;1067;-62
2021/12/13 08:50:22;;;;;;;;;;;;;;;;;;5156033;27;958;-61
2021/12/13 08:52:48;;;;;;;;;;;;;;;;;;5155475;27;911;-61
2021/12/13 08:55:16;;;;;;;;;;;;;;;;;;5129496;27;2855;-61
2021/12/13 08:57:42;;;;;;;;;;;;;;;;;;5139562;27;2814;-61
2021/12/13 09:00:13;;;;;;;;;;;;;;;;;;5144840;27;2938;-61
2021/12/13 09:02:48;;;;;;;;;;;;;;;;;;5138651;27;828;-61
2021/12/13 09:05:16;;;;;;;;;;;;;;;;;;5135797;27;2978;-61
2021/12/13 09:07:52;;;;;;;;;;;;;;;;;;5134641;27;798;-61
2021/12/13 09:10:18;;;;;;;;;;;;;;;;;;5135509;27;962;-61
2021/12/13 09:12:45;;;;;;;;;;;;;;;;;;5115969;27;1285;-61
2021/12/13 09:15:19;;;;;;;;;;;;;;;;;;5135227;27;3006;-61
2021/12/13 09:17:47;;;;;;;;;;;;;;;;;;5134384;27;1898;-61
2021/12/13 09:20:12;;;;;;;;;;;;;;;;;;5135443;27;1173;-61
2021/12/13 09:22:50;;;;;;;;;;;;;;;;;;5135219;27;1133;-61
2021/12/13 09:25:30;;;;;;;;;;;;;;;;;;5146356;27;1187;-61
2021/12/13 09:28:05;;;;;;;;;;;;;;;;;;5133988;27;840;-61
2021/12/13 09:30:30;;;;;;;;;;;;;;;;;;5134613;27;962;-61
2021/12/13 09:33:01;;;;;;;;;;;;;;;;;;5134952;27;979;-61
2021/12/13 09:35:29;;;;;;;;;;;;;;;;;;5135545;27;1005;-61
2021/12/13 09:37:58;;;;;;;;;;;;;;;;;;5134861;27;1922;-60
2021/12/13 09:40:27;;;;;;;;;;;;;;;;;;5135787;27;1272;-60
2021/12/13 09:42:53;;;;;;;;;;;;;;;;;;5134691;27;805;-60
2021/12/13 09:45:26;;;;;;;;;;;;;;;;;;5135721;27;892;-61
2021/12/13 09:47:51;;;;;;;;;;;;;;;;;;5134564;27;1178;-61
2021/12/13 09:50:18;;;;;;;;;;;;;;;;;;5135355;27;820;-61
2021/12/13 09:52:49;;;;;;;;;;;;;;;;;;5099329;27;1256;-61
2021/12/13 09:55:20;;;;;;;;;;;;;;;;;;5135058;27;797;-61
2021/12/13 09:57:51;;;;;;;;;;;;;;;;;;5134540;27;1961;-61
2021/12/13 10:00:23;;;;;;;;;;;;;;;;;;5135097;27;864;-60
2021/12/13 10:02:51;;;;;;;;;;;;;;;;;;5133695;27;849;-60
2021/12/13 10:05:20;;;;;;;;;;;;;;;;;;5134420;27;857;-60
2021/12/13 10:07:49;;;;;;;;;;;;;;;;;;5133521;27;812;-60
2021/12/13 10:10:19;;;;;;;;;;;;;;;;;;5134028;27;911;-60
2021/12/13 10:12:50;;;;;;;;;;;;;;;;;;5133640;27;875;-61
2021/12/13 10:15:36;;;;;;;;;;;;;;;;;;5115287;27;717;-60
2021/12/13 10:18:10;;;;;;;;;;;;;;;;;;5133176;27;1964;-61
2021/12/13 10:20:41;;;;;;;;;;;;;;;;;;5133550;27;831;-60
2021/12/13 10:23:09;;;;;;;;;;;;;;;;;;5133488;27;954;-60
2021/12/13 10:25:36;;;;;;;;;;;;;;;;;;5133174;27;845;-60
2021/12/13 10:28:03;;;;;;;;;;;;;;;;;;5133021;27;839;-60
2021/12/13 10:30:34;;;;;;;;;;;;;;;;;;5132716;27;2459;-60
2021/12/13 10:33:01;;;;;;;;;;;;;;;;;;5132550;27;2585;-60
2021/12/13 10:35:29;;;;;;;;;;;;;;;;;;5132992;27;931;-60
2021/12/13 10:37:59;;;;;;;;;;;;;;;;;;5132196;27;1956;-61
2021/12/13 10:40:27;;;;;;;;;;;;;;;;;;5132221;27;1039;-60
2021/12/13 10:43:01;;;;;;;;;;;;;;;;;;5131956;27;911;-60
2021/12/13 10:45:29;;;;;;;;;;;;;;;;;;5132716;27;816;-60
2021/12/13 10:47:57;;;;;;;;;;;;;;;;;;5132440;27;716;-60
2021/12/13 10:50:25;;;;;;;;;;;;;;;;;;5132573;27;1852;-60
2021/12/13 10:52:53;;;;;;;;;;;;;;;;;;5131828;27;903;-60
2021/12/13 10:55:21;;;;;;;;;;;;;;;;;;5132401;27;832;-60
2021/12/13 10:57:48;;;;;;;;;;;;;;;;;;5132081;27;1905;-61
2021/12/13 11:00:19;;;;;;;;;;;;;;;;;;5113930;27;975;-61
2021/12/13 11:02:45;;;;;;;;;;;;;;;;;;5132228;27;802;-61
2021/12/13 11:05:19;;;;;;;;;;;;;;;;;;5132267;27;800;-61
2021/12/13 11:07:44;;;;;;;;;;;;;;;;;;5113779;27;806;-61
2021/12/13 11:10:11;;;;;;;;;;;;;;;;;;5113767;27;880;-61
2021/12/13 11:12:40;;;;;;;;;;;;;;;;;;5132831;27;982;-60
2021/12/13 11:15:08;;;;;;;;;;;;;;;;;;5114002;27;1194;-60
2021/12/13 11:17:34;;;;;;;;;;;;;;;;;;5133014;27;1950;-61
2021/12/13 11:20:04;;;;;;;;;;;;;;;;;;5132075;27;895;-60
2021/12/13 11:22:31;;;;;;;;;;;;;;;;;;5132876;27;895;-61
2021/12/13 11:24:58;;;;;;;;;;;;;;;;;;5132511;27;903;-61
2021/12/13 11:27:27;;;;;;;;;;;;;;;;;;5132876;27;832;-61
2021/12/13 11:29:53;;;;;;;;;;;;;;;;;;5132274;27;804;-61
2021/12/13 11:32:39;;;;;;;;;;;;;;;;;;5132987;27;985;-61
2021/12/13 11:35:19;;;;;;;;;;;;;;;;;;5132365;27;1120;-61
2021/12/13 11:38:03;;;;;;;;;;;;;;;;;;5132187;27;1980;-60
2021/12/13 11:40:51;;;;;;;;;;;;;;;;;;5132572;27;907;-62
2021/12/13 11:43:35;;;;;;;;;;;;;;;;;;5132626;27;1393;-60
2021/12/13 11:46:19;;;;;;;;;;;;;;;;;;5132100;27;1081;-61
2021/12/13 11:48:47;;;;;;;;;;;;;;;;;;5132018;27;891;-60
2021/12/13 11:51:30;;;;;;;;;;;;;;;;;;5131863;27;986;-61
2021/12/13 11:54:07;;;;;;;;;;;;;;;;;;5112900;27;1279;-61
2021/12/13 11:56:50;;;;;;;;;;;;;;;;;;5132295;27;862;-61
2021/12/13 11:59:34;;;;;;;;;;;;;;;;;;5132064;27;1905;-61
2021/12/13 12:02:03;;;;;;;;;;;;;;;;;;5132092;27;887;-61
2021/12/13 12:04:34;;;;;;;;;;;;;;;;;;5131845;27;879;-61
2021/12/13 12:07:19;;;;;;;;;;;;;;;;;;5131586;27;995;-61
2021/12/13 12:09:50;;;;;;;;;;;;;;;;;;5131162;27;827;-61
2021/12/13 12:12:27;;;;;;;;;;;;;;;;;;5131847;27;789;-61
2021/12/13 12:15:00;;;;;;;;;;;;;;;;;;5131371;28;1118;-61
2021/12/13 12:17:27;;;;;;;;;;;;;;;;;;5131362;28;1905;-61
2021/12/13 12:19:53;;;;;;;;;;;;;;;;;;5129853;27;2350;-60
2021/12/13 12:22:19;;;;;;;;;;;;;;;;;;5150376;27;1582;-61
2021/12/13 12:24:56;;;;;;;;;;;;;;;;;;5152452;27;919;-61
2021/12/13 12:27:33;;;;;;;;;;;;;;;;;;5152486;27;839;-61
2021/12/13 12:30:05;;;;;;;;;;;;;;;;;;5151862;27;951;-61
2021/12/13 12:32:32;;;;;;;;;;;;;;;;;;5133665;27;879;-60
2021/12/13 12:35:03;;;;;;;;;;;;;;;;;;5151881;27;895;-61
2021/12/13 12:37:31;;;;;;;;;;;;;;;;;;5151469;27;1914;-61
2021/12/13 12:40:08;;;;;;;;;;;;;;;;;;5151466;27;773;-61
2021/12/13 12:42:40;;;;;;;;;;;;;;;;;;5152242;27;910;-61
2021/12/13 12:45:09;;;;;;;;;;;;;;;;;;5151875;27;910;-61
2021/12/13 12:47:34;;;;;;;;;;;;;;;;;;5152175;27;796;-61
2021/12/13 12:50:18;;;;;;;;;;;;;;;;;;5151255;27;883;-61
2021/12/13 12:52:55;;;;;;;;;;;;;;;;;;5151901;27;859;-61
2021/12/13 12:55:27;;;;;;;;;;;;;;;;;;5152890;27;887;-61
2021/12/13 12:57:52;;;;;;;;;;;;;;;;;;5151309;27;1905;-61
2021/12/13 13:00:22;;;;;;;;;;;;;;;;;;5152690;27;899;-61
2021/12/13 13:02:47;;;;;;;;;;;;;;;;;;5152340;27;982;-61
2021/12/13 13:05:13;;;;;;;;;;;;;;;;;;5137697;27;820;-61
2021/12/13 13:07:39;;;;;;;;;;;;;;;;;;5156314;27;1017;-61
2021/12/13 13:12:51;;;;;;;;;;;;;;;;;;5145166;27;2480;-61
2021/12/13 13:15:16;;;;;;;;;;;;;;;;;;5152465;27;1322;-62
2021/12/13 13:17:43;;;;;;;;;;;;;;;;;;5155626;27;1905;-62
2021/12/13 13:20:12;;;;;;;;;;;;;;;;;;5155888;27;868;-62
2021/12/13 13:22:39;;;;;;;;;;;;;;;;;;5155708;27;812;-61
2021/12/13 13:25:11;;;;;;;;;;;;;;;;;;5136850;27;1294;-61
2021/12/13 13:27:37;;;;;;;;;;;;;;;;;;5155663;27;836;-62
2021/12/13 13:30:05;;;;;;;;;;;;;;;;;;5155250;27;884;-61
2021/12/13 13:32:35;;;;;;;;;;;;;;;;;;5155572;27;896;-61
2021/12/13 13:35:00;;;;;;;;;;;;;;;;;;5155167;27;1012;-61
2021/12/13 13:37:26;;;;;;;;;;;;;;;;;;5154652;27;1921;-61
2021/12/13 13:39:53;;;;;;;;;;;;;;;;;;5154668;27;742;-61
2021/12/13 13:42:25;;;;;;;;;;;;;;;;;;5155241;27;824;-61
2021/12/13 13:44:53;;;;;;;;;;;;;;;;;;5154653;27;873;-61
2021/12/13 13:47:23;;;;;;;;;;;;;;;;;;5136173;27;844;-61
2021/12/13 13:49:49;;;;;;;;;;;;;;;;;;5155097;27;804;-62
2021/12/13 13:52:14;;;;;;;;;;;;;;;;;;5154884;27;887;-61
2021/12/13 13:54:40;;;;;;;;;;;;;;;;;;5154693;27;848;-61
2021/12/13 13:57:12;;;;;;;;;;;;;;;;;;5154005;27;986;-61
2021/12/13 13:59:39;;;;;;;;;;;;;;;;;;5154424;27;1954;-61
2021/12/13 14:02:07;;;;;;;;;;;;;;;;;;5154392;27;839;-61
2021/12/13 14:04:34;;;;;;;;;;;;;;;;;;5154480;27;839;-61
2021/12/13 14:07:26;;;;;;;;;;;;;;;;;;5154219;27;938;-61
2021/12/13 14:09:53;;;;;;;;;;;;;;;;;;5134861;27;1302;-60
2021/12/13 14:12:28;;;;;;;;;;;;;;;;;;5152411;27;2478;-60
2021/12/13 14:14:59;;;;;;;;;;;;;;;;;;5153137;27;835;-60
2021/12/13 14:17:32;;;;;;;;;;;;;;;;;;5154349;27;1926;-60
2021/12/13 14:20:03;;;;;;;;;;;;;;;;;;5154394;27;1137;-60
2021/12/13 14:22:30;;;;;;;;;;;;;;;;;;5135789;27;1828;-60
2021/12/13 14:24:55;;;;;;;;;;;;;;;;;;5154038;27;1102;-59
2021/12/13 14:27:25;;;;;;;;;;;;;;;;;;5154329;27;899;-59
2021/12/13 14:29:53;;;;;;;;;;;;;;;;;;5154809;27;866;-60
2021/12/13 14:32:18;;;;;;;;;;;;;;;;;;5154496;27;1169;-60
2021/12/13 14:34:44;;;;;;;;;;;;;;;;;;5135686;27;954;-60
2021/12/13 14:37:10;;;;;;;;;;;;;;;;;;5154032;27;1245;-60
2021/12/13 14:39:42;;;;;;;;;;;;;;;;;;5154472;27;1910;-60
2021/12/13 14:42:07;;;;;;;;;;;;;;;;;;5154460;27;1152;-60
2021/12/13 14:44:34;;;;;;;;;;;;;;;;;;5154950;27;1010;-60
2021/12/13 14:47:03;;;;;;;;;;;;;;;;;;5154002;27;866;-60
2021/12/13 14:49:31;;;;;;;;;;;;;;;;;;5154513;27;991;-60
2021/12/13 14:52:00;;;;;;;;;;;;;;;;;;5154701;27;948;-60
2021/12/13 14:54:27;;;;;;;;;;;;;;;;;;5154216;27;843;-60
2021/12/13 14:56:54;;;;;;;;;;;;;;;;;;5154684;27;1152;-60
2021/12/13 14:59:20;;;;;;;;;;;;;;;;;;5135692;27;1971;-60
2021/12/13 15:01:46;;;;;;;;;;;;;;;;;;5154210;27;902;-60
2021/12/13 15:04:11;;;;;;;;;;;;;;;;;;5154267;27;872;-60
2021/12/13 15:06:39;;;;;;;;;;;;;;;;;;5154118;27;836;-60
2021/12/13 15:09:10;;;;;;;;;;;;;;;;;;5153746;27;902;-60
2021/12/13 15:11:38;;;;;;;;;;;;;;;;;;5154389;27;1045;-60
2021/12/13 15:14:05;;;;;;;;;;;;;;;;;;5153129;27;828;-60
2021/12/13 15:16:35;;;;;;;;;;;;;;;;;;5153692;27;844;-60
2021/12/13 15:19:02;;;;;;;;;;;;;;;;;;5154044;27;1905;-60
2021/12/13 15:21:28;;;;;;;;;;;;;;;;;;5153180;27;812;-60
2021/12/13 15:23:57;;;;;;;;;;;;;;;;;;5153060;27;773;-60
2021/12/13 15:26:24;;;;;;;;;;;;;;;;;;5152858;27;1037;-61
2021/12/13 15:28:51;;;;;;;;;;;;;;;;;;5152994;27;848;-60
2021/12/13 15:31:25;;;;;;;;;;;;;;;;;;5152932;27;911;-61
2021/12/13 15:33:52;;;;;;;;;;;;;;;;;;5152503;27;1017;-60
2021/12/13 15:36:18;;;;;;;;;;;;;;;;;;5152780;27;911;-60
2021/12/13 15:38:45;;;;;;;;;;;;;;;;;;5152983;27;1913;-60
2021/12/13 15:41:13;;;;;;;;;;;;;;;;;;5152687;27;914;-61
2021/12/13 15:43:42;;;;;;;;;;;;;;;;;;5152618;27;919;-60
2021/12/13 15:46:14;;;;;;;;;;;;;;;;;;5152387;27;1572;-60
2021/12/13 15:51:45;;;;;;;;;;;;;;;;;;5151596;27;867;-61
2021/12/13 15:54:13;;;;;;;;;;;;;;;;;;5152381;27;835;-60
2021/12/13 15:56:41;;;;;;;;;;;;;;;;;;5152549;27;1499;-60
2021/12/13 15:59:09;;;;;;;;;;;;;;;;;;5152163;27;1969;-62
2021/12/13 16:01:37;;;;;;;;;;;;;;;;;;5151664;27;2743;-61
2021/12/13 16:04:09;;;;;;;;;;;;;;;;;;5152320;27;1014;-61
2021/12/13 16:06:36;;;;;;;;;;;;;;;;;;5152805;27;977;-62
2021/12/13 16:09:10;;;;;;;;;;;;;;;;;;5152841;27;906;-61
2021/12/13 16:11:37;;;;;;;;;;;;;;;;;;5152578;27;844;-62
2021/12/13 16:14:18;;;;;;;;;;;;;;;;;;5152495;27;1798;-62
2021/12/13 16:16:53;;;;;;;;;;;;;;;;;;5153755;27;791;-61
2021/12/13 16:19:33;;;;;;;;;;;;;;;;;;5152484;27;1922;-61
2021/12/13 16:21:58;;;;;;;;;;;;;;;;;;5152537;27;785;-61
2021/12/13 16:24:24;;;;;;;;;;;;;;;;;;5152692;27;895;-61
2021/12/13 16:26:53;;;;;;;;;;;;;;;;;;5152400;27;991;-60
2021/12/13 16:29:18;;;;;;;;;;;;;;;;;;5152544;27;840;-61
2021/12/13 16:31:44;;;;;;;;;;;;;;;;;;5134040;27;883;-60
2021/12/13 16:34:12;;;;;;;;;;;;;;;;;;5152743;27;996;-60
2021/12/13 16:36:40;;;;;;;;;;;;;;;;;;5152897;27;1044;-60
2021/12/13 16:39:08;;;;;;;;;;;;;;;;;;5154488;27;1901;-60
2021/12/13 16:41:34;;;;;;;;;;;;;;;;;;5157303;27;828;-60
2021/12/13 16:44:04;;;;;;;;;;;;;;;;;;5156832;27;879;-60
2021/12/13 16:46:30;;;;;;;;;;;;;;;;;;5156697;27;771;-60
2021/12/13 16:49:08;;;;;;;;;;;;;;;;;;5156497;27;915;-60
2021/12/13 16:51:39;;;;;;;;;;;;;;;;;;5157302;27;899;-60
2021/12/13 16:54:05;;;;;;;;;;;;;;;;;;5157073;27;871;-60
2021/12/13 16:56:31;;;;;;;;;;;;;;;;;;5156932;27;1053;-60
2021/12/13 16:58:56;;;;;;;;;;;;;;;;;;5156211;27;1893;-61
2021/12/13 17:01:28;;;;;;;;;;;;;;;;;;5156591;27;840;-60
2021/12/13 17:03:54;;;;;;;;;;;;;;;;;;5156553;27;824;-60
2021/12/13 17:06:22;;;;;;;;;;;;;;;;;;5156885;27;895;-61
2021/12/13 17:08:50;;;;;;;;;;;;;;;;;;5156660;27;971;-60
2021/12/13 17:11:17;;;;;;;;;;;;;;;;;;5156726;27;972;-60
2021/12/13 17:13:45;;;;;;;;;;;;;;;;;;5156431;27;800;-60
2021/12/13 17:16:15;;;;;;;;;;;;;;;;;;5155966;27;879;-60
2021/12/13 17:19:05;;;;;;;;;;;;;;;;;;5156092;27;1901;-60
2021/12/13 17:21:35;;;;;;;;;;;;;;;;;;5156295;27;1148;-60
2021/12/13 17:24:16;;;;;;;;;;;;;;;;;;5156320;27;911;-60
2021/12/13 17:26:48;;;;;;;;;;;;;;;;;;5156627;27;875;-60
2021/12/13 17:29:19;;;;;;;;;;;;;;;;;;5137274;27;1104;-60
2021/12/13 17:31:44;;;;;;;;;;;;;;;;;;5155931;27;1069;-60
2021/12/13 17:34:33;;;;;;;;;;;;;;;;;;5155503;27;1086;-60
2021/12/13 17:37:00;;;;;;;;;;;;;;;;;;5141743;27;1279;-61
2021/12/13 17:39:28;;;;;;;;;;;;;;;;;;5154731;27;1917;-61
2021/12/13 17:41:55;;;;;;;;;;;;;;;;;;5155651;27;903;-61
2021/12/13 17:44:20;;;;;;;;;;;;;;;;;;5154716;27;740;-61
2021/12/13 17:46:46;;;;;;;;;;;;;;;;;;5155500;27;852;-61
2021/12/13 17:49:11;;;;;;;;;;;;;;;;;;5152748;27;2673;-61
2021/12/13 17:51:48;;;;;;;;;;;;;;;;;;5153969;27;1047;-60
2021/12/13 17:54:14;;;;;;;;;;;;;;;;;;5136541;27;1311;-61